createdAt,value
2023-07-09T00:00:20.450Z,2.70
2023-07-09T00:03:12.139Z,2.70
2023-07-09T00:05:40.731Z,2.80
2023-07-09T00:08:27.802Z,3.00
2023-07-09T00:10:57.363Z,3.00
2023-07-09T00:13:27.577Z,2.53
2023-07-09T00:16:02.765Z,3.03
2023-07-09T00:18:31.126Z,3.20
2023-07-09T00:21:00.405Z,2.78
2023-07-09T00:23:29.034Z,2.90
2023-07-09T00:25:59.755Z,2.60
2023-07-09T00:28:28.117Z,3.03
2023-07-09T00:30:56.565Z,2.92
2023-07-09T00:33:29.349Z,3.42
2023-07-09T00:35:57.883Z,2.92
2023-07-09T00:38:26.012Z,2.85
2023-07-09T00:41:07.143Z,3.25
2023-07-09T00:43:37.550Z,3.08
2023-07-09T00:46:37.753Z,2.83
2023-07-09T00:49:10.336Z,3.40
2023-07-09T00:51:43.381Z,2.75
2023-07-09T00:54:38.169Z,3.08
2023-07-09T00:57:19.695Z,2.72
2023-07-09T00:59:52.980Z,3.08
2023-07-09T01:02:25.585Z,2.72
2023-07-09T01:05:02.093Z,2.97
2023-07-09T01:07:35.898Z,3.15
2023-07-09T01:10:04.548Z,2.95
2023-07-09T01:12:36.359Z,2.80
2023-07-09T01:15:06.271Z,2.80
2023-07-09T01:17:35.558Z,2.85
2023-07-09T01:20:04.899Z,2.88
2023-07-09T01:22:33.921Z,2.72
2023-07-09T01:25:08.351Z,3.00
2023-07-09T01:27:44.118Z,3.33
2023-07-09T01:30:24.560Z,3.10
2023-07-09T01:32:58.774Z,2.70
2023-07-09T01:35:28.044Z,3.25
2023-07-09T01:37:57.382Z,3.10
2023-07-09T01:40:31.937Z,2.83
2023-07-09T01:43:07.606Z,3.10
2023-07-09T01:45:38.266Z,3.50
2023-07-09T01:48:09.417Z,3.33
2023-07-09T01:50:40.373Z,3.00
2023-07-09T01:53:10.046Z,2.88
2023-07-09T01:55:40.988Z,2.90
2023-07-09T01:58:12.500Z,2.88
2023-07-09T02:00:42.815Z,3.30
2023-07-09T02:03:12.928Z,2.67
2023-07-09T02:05:42.192Z,2.63
2023-07-09T02:08:10.509Z,2.70
2023-07-09T02:10:38.569Z,2.65
2023-07-09T02:13:07.021Z,3.13
2023-07-09T02:15:35.838Z,2.90
2023-07-09T02:18:04.655Z,2.83
2023-07-09T02:20:52.674Z,2.83
2023-07-09T02:23:21.895Z,2.70
2023-07-09T02:25:49.834Z,2.55
2023-07-09T02:28:18.139Z,2.83
2023-07-09T02:30:46.647Z,2.55
2023-07-09T02:33:15.088Z,2.70
2023-07-09T02:35:43.961Z,3.03
2023-07-09T02:38:12.324Z,2.80
2023-07-09T02:40:40.578Z,2.83
2023-07-09T02:43:08.931Z,2.70
2023-07-09T02:45:37.181Z,2.67
2023-07-09T02:48:05.910Z,2.80
2023-07-09T02:50:39.805Z,2.67
2023-07-09T02:53:08.312Z,2.70
2023-07-09T02:55:36.604Z,2.60
2023-07-09T02:58:05.071Z,2.58
2023-07-09T03:00:34.922Z,2.72
2023-07-09T03:03:04.038Z,2.80
2023-07-09T03:05:32.823Z,2.55
2023-07-09T03:08:01.177Z,2.75
2023-07-09T03:10:30.395Z,3.22
2023-07-09T03:12:58.967Z,2.83
2023-07-09T03:15:26.930Z,3.38
2023-07-09T03:17:55.230Z,2.70
2023-07-09T03:20:23.350Z,3.05
2023-07-09T03:22:51.713Z,2.95
2023-07-09T03:25:20.137Z,2.60
2023-07-09T03:27:50.032Z,2.95
2023-07-09T03:30:18.131Z,3.00
2023-07-09T03:32:47.148Z,2.67
2023-07-09T03:35:16.958Z,2.90
2023-07-09T03:37:45.303Z,2.72
2023-07-09T03:40:25.163Z,3.13
2023-07-09T03:42:53.926Z,3.00
2023-07-09T03:45:21.920Z,2.83
2023-07-09T03:47:50.312Z,3.17
2023-07-09T03:50:18.862Z,2.95
2023-07-09T03:52:47.126Z,2.97
2023-07-09T03:55:15.636Z,3.10
2023-07-09T03:57:44.167Z,3.20
2023-07-09T04:00:12.928Z,3.10
2023-07-09T04:02:47.195Z,3.10
2023-07-09T04:05:15.987Z,3.10
2023-07-09T04:07:44.280Z,2.95
2023-07-09T04:10:12.924Z,3.17
2023-07-09T04:12:41.869Z,2.83
2023-07-09T04:15:14.250Z,3.65
2023-07-09T04:17:44.878Z,3.05
2023-07-09T04:20:14.117Z,3.55
2023-07-09T04:22:42.533Z,3.20
2023-07-09T04:25:11.913Z,3.20
2023-07-09T04:27:40.822Z,3.20
2023-07-09T04:30:16.384Z,3.30
2023-07-09T04:32:45.827Z,3.10
2023-07-09T04:35:15.866Z,3.30
2023-07-09T04:37:44.512Z,3.55
2023-07-09T04:40:14.340Z,3.28
2023-07-09T04:42:42.976Z,3.42
2023-07-09T04:45:12.933Z,4.13
2023-07-09T04:47:41.940Z,3.33
2023-07-09T04:50:10.761Z,3.58
2023-07-09T04:52:39.032Z,3.50
2023-07-09T04:55:09.110Z,3.17
2023-07-09T04:57:40.922Z,3.83
2023-07-09T05:00:11.861Z,3.50
2023-07-09T05:02:40.586Z,3.40
2023-07-09T05:05:09.074Z,3.53
2023-07-09T05:07:37.883Z,3.47
2023-07-09T05:10:08.094Z,3.15
2023-07-09T05:12:36.319Z,3.63
2023-07-09T05:15:04.646Z,3.53
2023-07-09T05:17:33.751Z,3.53
2023-07-09T05:20:01.641Z,3.97
2023-07-09T05:22:30.325Z,3.80
2023-07-09T05:24:58.132Z,3.50
2023-07-09T05:27:26.362Z,3.60
2023-07-09T05:29:57.436Z,3.20
2023-07-09T05:32:25.959Z,3.60
2023-07-09T05:34:53.931Z,3.63
2023-07-09T05:37:22.184Z,3.53
2023-07-09T05:39:50.302Z,2.80
2023-07-09T05:42:18.746Z,2.92
2023-07-09T05:44:47.434Z,3.15
2023-07-09T05:47:15.967Z,2.95
2023-07-09T05:49:44.058Z,3.47
2023-07-09T05:52:12.469Z,3.00
2023-07-09T05:54:40.339Z,3.55
2023-07-09T05:57:10.059Z,3.08
2023-07-09T05:59:38.121Z,3.10
2023-07-09T06:02:12.177Z,3.38
2023-07-09T06:04:40.736Z,2.97
2023-07-09T06:07:11.210Z,3.28
2023-07-09T06:09:39.265Z,3.67
2023-07-09T06:12:08.440Z,3.30
2023-07-09T06:14:37.193Z,2.97
2023-07-09T06:17:05.835Z,3.20
2023-07-09T06:19:33.980Z,3.30
2023-07-09T06:22:02.415Z,3.03
2023-07-09T06:24:30.421Z,3.15
2023-07-09T06:26:58.842Z,3.03
2023-07-09T06:29:27.803Z,3.25
2023-07-09T06:31:56.125Z,3.28
2023-07-09T06:34:24.581Z,2.95
2023-07-09T06:36:53.357Z,3.15
2023-07-09T06:39:21.182Z,3.13
2023-07-09T06:41:50.035Z,3.13
2023-07-09T06:44:38.108Z,2.95
2023-07-09T06:47:06.764Z,3.00
2023-07-09T06:49:34.818Z,3.15
2023-07-09T06:52:03.922Z,2.88
2023-07-09T06:54:34.585Z,3.35
2023-07-09T06:57:02.925Z,3.30
2023-07-09T06:59:31.232Z,3.38
2023-07-09T07:02:00.520Z,3.00
2023-07-09T07:04:29.011Z,3.15
2023-07-09T07:06:58.211Z,3.30
2023-07-09T07:09:26.203Z,3.03
2023-07-09T07:11:54.413Z,3.10
2023-07-09T07:14:22.404Z,3.50
2023-07-09T07:16:51.568Z,3.42
2023-07-09T07:19:19.485Z,2.92
2023-07-09T07:21:47.928Z,3.38
2023-07-09T07:24:15.948Z,3.25
2023-07-09T07:26:44.190Z,3.35
2023-07-09T07:29:13.568Z,3.03
2023-07-09T07:31:41.883Z,3.17
2023-07-09T07:34:09.853Z,3.10
2023-07-09T07:36:42.262Z,3.20
2023-07-09T07:39:11.451Z,3.33
2023-07-09T07:41:39.724Z,3.15
2023-07-09T07:44:07.705Z,3.35
2023-07-09T07:46:37.986Z,3.10
2023-07-09T07:49:06.136Z,3.33
2023-07-09T07:51:35.339Z,3.25
2023-07-09T07:54:03.758Z,3.15
2023-07-09T07:56:32.221Z,2.88
2023-07-09T07:59:02.702Z,2.80
2023-07-09T08:01:40.293Z,3.08
2023-07-09T08:04:16.051Z,2.78
2023-07-09T08:06:44.617Z,3.53
2023-07-09T08:09:12.781Z,2.97
2023-07-09T08:11:41.091Z,2.70
2023-07-09T08:14:09.166Z,3.33
2023-07-09T08:16:37.636Z,3.00
2023-07-09T08:19:05.814Z,3.20
2023-07-09T08:21:34.396Z,3.25
2023-07-09T08:24:04.702Z,3.55
2023-07-09T08:26:34.097Z,3.00
2023-07-09T08:29:02.504Z,2.88
2023-07-09T08:31:30.830Z,2.70
2023-07-09T08:33:58.881Z,3.08
2023-07-09T08:36:29.655Z,2.83
2023-07-09T08:38:58.790Z,3.03
2023-07-09T08:41:46.416Z,2.70
2023-07-09T08:44:24.490Z,3.00
2023-07-09T08:47:01.670Z,3.13
2023-07-09T08:49:56.429Z,2.75
2023-07-09T08:52:36.945Z,3.40
2023-07-09T08:55:13.322Z,2.90
2023-07-09T08:57:49.921Z,2.90
2023-07-09T09:00:57.826Z,3.05
2023-07-09T09:04:14.086Z,2.97
2023-07-09T09:06:49.203Z,3.17
2023-07-09T09:09:33.980Z,2.95
2023-07-09T09:12:14.316Z,2.95
2023-07-09T09:14:53.915Z,3.35
2023-07-09T09:17:22.495Z,2.97
2023-07-09T09:20:00.877Z,3.10
2023-07-09T09:22:38.024Z,2.97
2023-07-09T09:25:28.656Z,3.30
2023-07-09T09:27:56.978Z,2.88
2023-07-09T09:30:27.157Z,3.17
2023-07-09T09:33:04.433Z,3.17
2023-07-09T09:35:38.944Z,3.08
2023-07-09T09:38:21.242Z,3.13
2023-07-09T09:40:50.334Z,3.03
2023-07-09T09:43:22.502Z,2.80
2023-07-09T09:45:51.613Z,3.10
2023-07-09T09:48:38.845Z,3.35
2023-07-09T09:51:07.826Z,3.33
2023-07-09T09:53:41.392Z,3.40
2023-07-09T09:56:19.630Z,2.90
2023-07-09T09:58:55.021Z,2.85
2023-07-09T10:01:32.394Z,3.27
2023-07-09T10:04:02.456Z,3.05
2023-07-09T10:06:34.027Z,3.17
2023-07-09T10:09:17.378Z,3.15
2023-07-09T10:11:50.335Z,3.45
2023-07-09T10:14:29.948Z,2.55
2023-07-09T10:17:25.585Z,2.63
2023-07-09T10:20:15.038Z,3.03
2023-07-09T10:26:17.100Z,2.92
2023-07-09T10:29:00.852Z,2.80
2023-07-09T10:31:47.592Z,2.70
2023-07-09T10:35:02.604Z,2.90
2023-07-09T10:37:55.811Z,3.03
2023-07-09T10:40:34.959Z,2.92
2023-07-09T10:43:06.504Z,2.70
2023-07-09T10:45:42.420Z,2.85
2023-07-09T10:50:45.748Z,2.92
2023-07-09T10:53:39.066Z,2.38
2023-07-09T10:56:10.819Z,2.90
2023-07-09T10:58:50.679Z,2.97
2023-07-09T11:01:27.226Z,3.20
2023-07-09T11:04:01.979Z,2.67
2023-07-09T11:06:39.808Z,2.78
2023-07-09T11:09:19.236Z,2.60
2023-07-09T11:11:52.475Z,2.90
2023-07-09T11:14:42.261Z,2.97
2023-07-09T11:17:19.139Z,3.00
2023-07-09T11:19:50.079Z,2.90
2023-07-09T11:22:24.014Z,2.72
2023-07-09T11:25:10.995Z,2.70
2023-07-09T11:27:52.760Z,2.72
2023-07-09T11:30:27.739Z,2.92
2023-07-09T11:33:10.341Z,3.00
2023-07-09T11:35:52.846Z,2.88
2023-07-09T11:38:25.139Z,2.78
2023-07-09T11:40:55.768Z,2.60
2023-07-09T11:43:47.771Z,3.00
2023-07-09T11:46:25.740Z,3.00
2023-07-09T11:48:59.435Z,3.00
2023-07-09T11:51:46.863Z,2.92
2023-07-09T11:54:20.312Z,2.70
2023-07-09T11:56:59.294Z,3.05
2023-07-09T11:59:28.464Z,3.15
2023-07-09T12:02:22.555Z,3.22
2023-07-09T12:04:52.501Z,2.95
2023-07-09T12:07:24.627Z,3.22
2023-07-09T12:09:52.988Z,2.85
2023-07-09T12:12:29.987Z,3.55
2023-07-09T12:14:58.339Z,2.65
2023-07-09T12:17:31.835Z,3.28
2023-07-09T12:20:05.620Z,3.63
2023-07-09T12:22:34.228Z,3.28
2023-07-09T12:25:02.830Z,3.42
2023-07-09T12:27:38.890Z,3.40
2023-07-09T12:30:14.638Z,3.65
2023-07-09T12:32:47.798Z,3.50
2023-07-09T12:35:17.891Z,3.63
2023-07-09T12:37:48.313Z,3.47
2023-07-09T12:40:22.285Z,3.40
2023-07-09T12:42:50.994Z,3.60
2023-07-09T12:45:21.788Z,4.05
2023-07-09T12:47:50.977Z,3.67
2023-07-09T12:50:34.128Z,3.50
2023-07-09T12:53:16.679Z,3.72
2023-07-09T12:55:47.834Z,4.15
2023-07-09T12:58:22.388Z,4.28
2023-07-09T13:00:53.149Z,3.95
2023-07-09T13:03:28.457Z,3.47
2023-07-09T13:06:05.437Z,3.72
2023-07-09T13:08:44.336Z,3.30
2023-07-09T13:11:22.526Z,3.10
2023-07-09T13:14:04.455Z,3.90
2023-07-09T13:16:39.773Z,3.70
2023-07-09T13:21:38.919Z,3.50
2023-07-09T13:24:29.292Z,3.40
2023-07-09T13:27:00.810Z,3.38
2023-07-09T13:29:29.391Z,3.30
2023-07-09T13:31:58.701Z,3.80
2023-07-09T13:34:29.234Z,3.47
2023-07-09T13:37:00.155Z,3.78
2023-07-09T13:39:29.237Z,3.28
2023-07-09T13:41:58.044Z,3.65
2023-07-09T13:44:29.316Z,3.88
2023-07-09T13:46:57.730Z,3.28
2023-07-09T13:49:28.786Z,3.53
2023-07-09T13:52:00.781Z,3.70
2023-07-09T13:54:41.733Z,4.00
2023-07-09T13:57:15.569Z,3.80
2023-07-09T13:59:46.848Z,3.30
2023-07-09T14:02:21.160Z,3.83
2023-07-09T14:04:49.553Z,3.43
2023-07-09T14:07:46.153Z,3.63
2023-07-09T14:10:19.436Z,3.72
2023-07-09T14:12:48.794Z,3.35
2023-07-09T14:15:22.091Z,3.65
2023-07-09T14:17:50.327Z,3.60
2023-07-09T14:20:19.382Z,3.85
2023-07-09T14:22:49.180Z,3.40
2023-07-09T14:25:22.367Z,3.53
2023-07-09T14:27:55.231Z,3.58
2023-07-09T14:30:28.365Z,3.85
2023-07-09T14:32:59.322Z,5.70
2023-07-09T14:35:28.201Z,4.00
2023-07-09T14:37:56.818Z,4.00
2023-07-09T14:40:51.237Z,4.18
2023-07-09T14:43:19.737Z,3.70
2023-07-09T14:45:51.062Z,4.07
2023-07-09T14:48:22.469Z,4.28
2023-07-09T14:50:52.453Z,4.57
2023-07-09T14:53:28.811Z,4.70
2023-07-09T14:55:58.596Z,5.03
2023-07-09T14:58:27.902Z,6.40
2023-07-09T15:00:56.315Z,6.80
2023-07-09T15:03:27.320Z,6.82
2023-07-09T15:05:55.918Z,6.97
2023-07-09T15:08:26.888Z,6.40
2023-07-09T15:10:56.986Z,6.22
2023-07-09T15:13:35.962Z,6.35
2023-07-09T15:16:06.064Z,5.82
2023-07-09T15:18:38.060Z,5.72
2023-07-09T15:21:07.025Z,5.85
2023-07-09T15:23:41.087Z,5.60
2023-07-09T15:26:15.836Z,4.97
2023-07-09T15:28:44.697Z,6.43
2023-07-09T15:31:13.486Z,5.82
2023-07-09T15:33:41.631Z,5.47
2023-07-09T15:36:13.374Z,6.15
2023-07-09T15:38:43.368Z,6.40
2023-07-09T15:41:16.219Z,6.75
2023-07-09T15:43:45.596Z,7.38
2023-07-09T15:46:22.744Z,15.30
2023-07-09T15:48:53.416Z,17.42
2023-07-09T15:51:23.041Z,20.83
2023-07-09T15:53:51.341Z,19.55
2023-07-09T15:56:31.222Z,8.32
2023-07-09T15:59:01.195Z,7.43
2023-07-09T16:01:29.882Z,8.48
2023-07-09T16:04:04.058Z,5.63
2023-07-09T16:06:36.660Z,6.20
2023-07-09T16:09:07.128Z,6.18
2023-07-09T16:11:38.121Z,5.70
2023-07-09T16:14:18.233Z,8.02
2023-07-09T16:16:52.255Z,6.53
2023-07-09T16:19:22.931Z,6.70
2023-07-09T16:22:12.322Z,6.20
2023-07-09T16:24:40.424Z,6.43
2023-07-09T16:27:15.524Z,5.75
2023-07-09T16:29:43.688Z,7.20
2023-07-09T16:32:12.182Z,6.60
2023-07-09T16:34:42.543Z,5.13
2023-07-09T16:37:21.589Z,5.82
2023-07-09T16:39:49.988Z,5.28
2023-07-09T16:42:18.343Z,4.70
2023-07-09T16:45:11.720Z,4.85
2023-07-09T16:51:53.620Z,4.45
2023-07-09T16:54:22.033Z,4.40
2023-07-09T16:56:54.689Z,3.92
2023-07-09T16:59:23.823Z,4.25
2023-07-09T17:01:52.363Z,3.90
2023-07-09T17:04:28.487Z,4.28
2023-07-09T17:06:57.583Z,4.10
2023-07-09T17:09:25.725Z,4.15
2023-07-09T17:11:59.159Z,4.50
2023-07-09T17:14:27.503Z,3.83
2023-07-09T17:16:56.461Z,4.03
2023-07-09T17:19:24.982Z,3.80
2023-07-09T17:21:56.042Z,3.63
2023-07-09T17:24:26.638Z,3.75
2023-07-09T17:26:59.210Z,3.85
2023-07-09T17:29:27.277Z,4.13
2023-07-09T17:31:55.706Z,3.92
2023-07-09T17:34:24.113Z,3.78
2023-07-09T17:36:55.205Z,4.22
2023-07-09T17:39:25.373Z,4.13
2023-07-09T17:41:54.024Z,3.95
2023-07-09T17:44:24.795Z,4.03
2023-07-09T17:46:55.338Z,4.05
2023-07-09T17:49:29.360Z,4.07
2023-07-09T17:51:59.558Z,3.63
2023-07-09T17:54:30.082Z,3.95
2023-07-09T17:56:58.769Z,3.70
2023-07-09T17:59:32.163Z,3.40
2023-07-09T18:02:15.035Z,4.03
2023-07-09T18:04:43.450Z,4.05
2023-07-09T18:07:29.557Z,5.40
2023-07-09T18:09:59.106Z,5.82
2023-07-09T18:12:29.513Z,4.60
2023-07-09T18:14:59.245Z,4.47
2023-07-09T18:17:36.474Z,4.88
2023-07-09T18:20:14.919Z,4.97
2023-07-09T18:22:43.287Z,4.35
2023-07-09T18:25:12.247Z,5.05
2023-07-09T18:27:44.749Z,4.72
2023-07-09T18:30:22.994Z,4.00
2023-07-09T18:32:56.317Z,4.00
2023-07-09T18:35:27.637Z,4.07
2023-07-09T18:38:02.263Z,4.10
2023-07-09T18:40:34.137Z,4.35
2023-07-09T18:43:03.707Z,4.45
2023-07-09T18:45:31.637Z,4.97
2023-07-09T18:48:00.522Z,4.40
2023-07-09T18:50:31.083Z,4.32
2023-07-09T18:53:00.823Z,4.20
2023-07-09T18:55:30.645Z,4.50
2023-07-09T18:58:14.673Z,4.70
2023-07-09T19:00:42.827Z,4.65
2023-07-09T19:03:19.557Z,4.18
2023-07-09T19:05:48.380Z,6.78
2023-07-09T19:08:28.292Z,4.10
2023-07-09T19:10:57.226Z,3.50
2023-07-09T19:13:29.359Z,3.88
2023-07-09T19:16:00.204Z,3.88
2023-07-09T19:18:34.722Z,4.07
2023-07-09T19:21:04.522Z,3.95
2023-07-09T19:23:33.873Z,4.10
2023-07-09T19:26:02.438Z,5.68
2023-07-09T19:28:31.131Z,4.25
2023-07-09T19:30:59.432Z,4.07
2023-07-09T19:33:37.111Z,4.18
2023-07-09T19:36:23.301Z,4.53
2023-07-09T19:38:53.612Z,4.50
2023-07-09T19:41:23.536Z,5.60
2023-07-09T19:43:52.255Z,4.07
2023-07-09T19:46:29.934Z,4.13
2023-07-09T19:48:58.433Z,4.65
2023-07-09T19:51:26.416Z,4.15
2023-07-09T19:53:55.006Z,4.80
2023-07-09T19:56:22.856Z,4.30
2023-07-09T19:58:53.088Z,4.93
2023-07-09T20:01:22.056Z,3.97
2023-07-09T20:03:50.450Z,3.65
2023-07-09T20:06:18.511Z,6.07
2023-07-09T20:08:47.365Z,4.63
2023-07-09T20:11:15.315Z,4.40
2023-07-09T20:13:44.269Z,4.90
2023-07-09T20:16:30.321Z,4.65
2023-07-09T20:19:00.190Z,4.18
2023-07-09T20:21:28.827Z,3.88
2023-07-09T20:23:57.602Z,3.70
2023-07-09T20:26:25.777Z,3.72
2023-07-09T20:28:54.171Z,3.47
2023-07-09T20:31:25.761Z,3.45
2023-07-09T20:34:11.808Z,2.80
2023-07-09T20:36:40.171Z,3.15
2023-07-09T20:39:20.750Z,3.92
2023-07-09T20:41:52.477Z,3.65
2023-07-09T20:44:24.438Z,3.22
2023-07-09T20:46:53.093Z,3.17
2023-07-09T20:49:28.683Z,3.28
2023-07-09T20:51:57.011Z,3.20
2023-07-09T20:54:25.475Z,2.80
2023-07-09T20:56:57.849Z,2.55
2023-07-09T20:59:28.761Z,2.70
2023-07-09T21:01:56.911Z,2.70
2023-07-09T21:04:25.580Z,3.20
2023-07-09T21:06:54.302Z,2.80
2023-07-09T21:09:31.656Z,2.70
2023-07-09T21:11:59.968Z,2.90
2023-07-09T21:14:28.641Z,2.90
2023-07-09T21:17:01.307Z,3.10
2023-07-09T21:19:34.082Z,2.80
2023-07-09T21:22:04.401Z,2.75
2023-07-09T21:24:39.283Z,2.63
2023-07-09T21:27:08.684Z,2.35
2023-07-09T21:29:37.377Z,2.33
2023-07-09T21:32:21.182Z,2.50
2023-07-09T21:34:53.539Z,2.25
2023-07-09T21:37:23.370Z,2.42
2023-07-09T21:39:52.219Z,2.70
2023-07-09T21:42:20.344Z,2.30
2023-07-09T21:44:48.623Z,2.13
2023-07-09T21:47:19.377Z,2.22
2023-07-09T21:49:48.000Z,1.80
2023-07-09T21:52:22.507Z,2.03
2023-07-09T21:57:24.108Z,2.03
2023-07-09T21:59:52.577Z,2.13
2023-07-09T22:02:25.084Z,2.17
2023-07-09T22:04:55.641Z,1.80
2023-07-09T22:07:25.883Z,1.98
2023-07-09T22:09:56.047Z,1.50
2023-07-09T22:12:24.371Z,2.00
2023-07-09T22:14:58.819Z,1.63
2023-07-09T22:17:27.543Z,1.60
2023-07-09T22:19:58.543Z,1.50
2023-07-09T22:22:31.382Z,1.55
2023-07-09T22:25:00.671Z,1.45
2023-07-09T22:27:29.454Z,1.10
2023-07-09T22:29:58.106Z,1.05
2023-07-09T22:32:32.251Z,1.10
2023-07-09T22:35:03.959Z,1.23
2023-07-09T22:37:33.797Z,1.20
2023-07-09T22:40:32.033Z,1.48
2023-07-09T22:43:00.764Z,1.08
2023-07-09T22:45:30.957Z,1.20
2023-07-09T22:48:00.950Z,1.58
2023-07-09T22:50:32.614Z,1.40
2023-07-09T22:53:01.098Z,1.08
2023-07-09T22:55:36.579Z,1.27
2023-07-09T22:58:09.084Z,1.00
2023-07-09T23:00:39.805Z,1.10
2023-07-09T23:03:18.212Z,1.00
2023-07-09T23:05:47.963Z,1.00
2023-07-09T23:08:24.898Z,1.08
2023-07-09T23:10:58.427Z,1.05
2023-07-09T23:13:30.476Z,0.95
2023-07-09T23:16:02.799Z,1.10
2023-07-09T23:18:32.124Z,1.17
2023-07-09T23:21:04.337Z,0.80
2023-07-09T23:23:32.565Z,1.00
2023-07-09T23:26:01.009Z,0.90
2023-07-09T23:28:29.236Z,0.70
2023-07-09T23:31:01.930Z,0.82
2023-07-09T23:33:32.982Z,0.85
2023-07-09T23:36:03.366Z,0.90
2023-07-09T23:38:33.537Z,0.93
2023-07-09T23:41:02.626Z,0.85
2023-07-09T23:43:41.868Z,0.82
2023-07-09T23:46:13.189Z,0.90
2023-07-09T23:48:46.731Z,0.90
2023-07-09T23:51:17.614Z,1.02
2023-07-09T23:53:45.560Z,1.00
2023-07-09T23:56:19.903Z,1.20
2023-07-09T23:58:48.093Z,0.95
